sensor_id;sensor_type;location;lat;lon;timestamp;temperature;humidity
43671;DHT22;29267;50.906;7.248;2023-04-21T00:02:15;6.90;99.90
43671;DHT22;29267;50.906;7.248;2023-04-21T00:04:41;6.80;99.90
43671;DHT22;29267;50.906;7.248;2023-04-21T00:07:10;6.80;99.90
43671;DHT22;29267;50.906;7.248;2023-04-21T00:09:36;6.80;99.90
43671;DHT22;29267;50.906;7.248;2023-04-21T00:12:01;6.80;99.90
43671;DHT22;29267;50.906;7.248;2023-04-21T00:14:27;6.80;99.90
43671;DHT22;29267;50.906;7.248;2023-04-21T00:16:52;6.80;99.90
43671;DHT22;29267;50.906;7.248;2023-04-21T00:19:19;6.80;99.90
43671;DHT22;29267;50.906;7.248;2023-04-21T00:21:44;6.80;99.90
43671;DHT22;29267;50.906;7.248;2023-04-21T00:24:10;6.80;99.90
43671;DHT22;29267;50.906;7.248;2023-04-21T00:26:36;6.80;99.90
43671;DHT22;29267;50.906;7.248;2023-04-21T00:29:02;6.80;99.90
43671;DHT22;29267;50.906;7.248;2023-04-21T00:31:28;6.90;99.90
43671;DHT22;29267;50.906;7.248;2023-04-21T00:33:53;6.90;99.90
43671;DHT22;29267;50.906;7.248;2023-04-21T00:36:20;6.90;99.90
43671;DHT22;29267;50.906;7.248;2023-04-21T00:38:45;6.90;99.90
43671;DHT22;29267;50.906;7.248;2023-04-21T00:41:11;6.90;99.90
43671;DHT22;29267;50.906;7.248;2023-04-21T00:43:37;6.90;99.90
43671;DHT22;29267;50.906;7.248;2023-04-21T00:46:12;6.90;99.90
43671;DHT22;29267;50.906;7.248;2023-04-21T00:48:37;6.90;99.90
43671;DHT22;29267;50.906;7.248;2023-04-21T00:51:03;6.90;99.90
43671;DHT22;29267;50.906;7.248;2023-04-21T00:53:29;6.90;99.90
43671;DHT22;29267;50.906;7.248;2023-04-21T00:55:54;6.90;99.90
43671;DHT22;29267;50.906;7.248;2023-04-21T00:58:20;6.90;99.90
43671;DHT22;29267;50.906;7.248;2023-04-21T01:00:45;6.90;99.90
43671;DHT22;29267;50.906;7.248;2023-04-21T01:03:11;6.90;99.90
43671;DHT22;29267;50.906;7.248;2023-04-21T01:05:37;6.90;99.90
43671;DHT22;29267;50.906;7.248;2023-04-21T01:08:02;6.90;99.90
43671;DHT22;29267;50.906;7.248;2023-04-21T01:10:30;6.90;99.90
43671;DHT22;29267;50.906;7.248;2023-04-21T01:12:55;6.90;99.90
43671;DHT22;29267;50.906;7.248;2023-04-21T01:15:21;6.90;99.90
43671;DHT22;29267;50.906;7.248;2023-04-21T01:17:47;6.80;99.90
43671;DHT22;29267;50.906;7.248;2023-04-21T01:20:14;6.80;99.90
43671;DHT22;29267;50.906;7.248;2023-04-21T01:22:41;6.80;99.90
43671;DHT22;29267;50.906;7.248;2023-04-21T01:25:07;6.80;99.90
43671;DHT22;29267;50.906;7.248;2023-04-21T01:27:33;6.80;99.90
43671;DHT22;29267;50.906;7.248;2023-04-21T01:29:59;6.80;99.90
43671;DHT22;29267;50.906;7.248;2023-04-21T01:32:27;6.80;99.90
43671;DHT22;29267;50.906;7.248;2023-04-21T01:34:57;6.80;99.90
43671;DHT22;29267;50.906;7.248;2023-04-21T01:37:26;6.80;99.90
43671;DHT22;29267;50.906;7.248;2023-04-21T01:39:53;6.90;99.90
43671;DHT22;29267;50.906;7.248;2023-04-21T01:42:22;6.90;99.90
43671;DHT22;29267;50.906;7.248;2023-04-21T01:44:47;6.80;99.90
43671;DHT22;29267;50.906;7.248;2023-04-21T01:47:15;6.80;99.90
43671;DHT22;29267;50.906;7.248;2023-04-21T01:49:41;6.80;99.90
43671;DHT22;29267;50.906;7.248;2023-04-21T01:52:07;6.80;99.90
43671;DHT22;29267;50.906;7.248;2023-04-21T01:54:33;6.90;99.90
43671;DHT22;29267;50.906;7.248;2023-04-21T01:56:59;6.80;99.90
43671;DHT22;29267;50.906;7.248;2023-04-21T01:59:26;6.80;99.90
43671;DHT22;29267;50.906;7.248;2023-04-21T02:01:51;6.90;99.90
43671;DHT22;29267;50.906;7.248;2023-04-21T02:04:17;6.90;99.90
43671;DHT22;29267;50.906;7.248;2023-04-21T02:06:43;6.90;99.90
43671;DHT22;29267;50.906;7.248;2023-04-21T02:09:08;6.80;99.90
43671;DHT22;29267;50.906;7.248;2023-04-21T02:11:34;6.90;99.90
43671;DHT22;29267;50.906;7.248;2023-04-21T02:13:59;6.80;99.90
43671;DHT22;29267;50.906;7.248;2023-04-21T02:16:25;6.90;99.90
43671;DHT22;29267;50.906;7.248;2023-04-21T02:18:55;6.90;99.90
43671;DHT22;29267;50.906;7.248;2023-04-21T02:21:27;6.90;99.90
43671;DHT22;29267;50.906;7.248;2023-04-21T02:23:53;6.90;99.90
43671;DHT22;29267;50.906;7.248;2023-04-21T02:26:19;6.80;99.90
43671;DHT22;29267;50.906;7.248;2023-04-21T02:28:45;6.80;99.90
43671;DHT22;29267;50.906;7.248;2023-04-21T02:31:11;6.80;99.90
43671;DHT22;29267;50.906;7.248;2023-04-21T02:33:36;6.80;99.90
43671;DHT22;29267;50.906;7.248;2023-04-21T02:36:02;6.70;99.90
43671;DHT22;29267;50.906;7.248;2023-04-21T02:38:28;6.70;99.90
43671;DHT22;29267;50.906;7.248;2023-04-21T02:40:55;6.70;99.90
43671;DHT22;29267;50.906;7.248;2023-04-21T02:43:21;6.70;99.90
43671;DHT22;29267;50.906;7.248;2023-04-21T02:45:46;6.70;99.90
43671;DHT22;29267;50.906;7.248;2023-04-21T02:48:12;6.70;99.90
43671;DHT22;29267;50.906;7.248;2023-04-21T02:50:38;6.60;99.90
43671;DHT22;29267;50.906;7.248;2023-04-21T02:53:04;6.60;99.90
43671;DHT22;29267;50.906;7.248;2023-04-21T02:55:30;6.50;99.90
43671;DHT22;29267;50.906;7.248;2023-04-21T02:57:55;6.40;99.90
43671;DHT22;29267;50.906;7.248;2023-04-21T03:00:21;6.40;99.90
43671;DHT22;29267;50.906;7.248;2023-04-21T03:02:47;6.40;99.90
43671;DHT22;29267;50.906;7.248;2023-04-21T03:05:12;6.40;99.90
43671;DHT22;29267;50.906;7.248;2023-04-21T03:07:38;6.40;99.90
43671;DHT22;29267;50.906;7.248;2023-04-21T03:10:05;6.30;99.90
43671;DHT22;29267;50.906;7.248;2023-04-21T03:12:31;6.30;99.90
43671;DHT22;29267;50.906;7.248;2023-04-21T03:14:57;6.20;99.90
43671;DHT22;29267;50.906;7.248;2023-04-21T03:17:23;6.20;99.90
43671;DHT22;29267;50.906;7.248;2023-04-21T03:19:49;6.10;99.90
43671;DHT22;29267;50.906;7.248;2023-04-21T03:22:14;6.10;99.90
43671;DHT22;29267;50.906;7.248;2023-04-21T03:24:40;6.10;99.90
43671;DHT22;29267;50.906;7.248;2023-04-21T03:27:05;6.20;99.90
43671;DHT22;29267;50.906;7.248;2023-04-21T03:29:31;6.10;99.90
43671;DHT22;29267;50.906;7.248;2023-04-21T03:31:56;6.10;99.90
43671;DHT22;29267;50.906;7.248;2023-04-21T03:34:22;6.00;99.90
43671;DHT22;29267;50.906;7.248;2023-04-21T03:36:47;6.00;99.90
43671;DHT22;29267;50.906;7.248;2023-04-21T03:39:13;6.10;99.90
43671;DHT22;29267;50.906;7.248;2023-04-21T03:41:39;6.00;99.90
43671;DHT22;29267;50.906;7.248;2023-04-21T03:44:04;6.00;99.90
43671;DHT22;29267;50.906;7.248;2023-04-21T03:46:30;6.00;99.90
43671;DHT22;29267;50.906;7.248;2023-04-21T03:48:55;6.00;99.90
43671;DHT22;29267;50.906;7.248;2023-04-21T03:51:21;5.90;99.90
43671;DHT22;29267;50.906;7.248;2023-04-21T03:53:46;5.90;99.90
43671;DHT22;29267;50.906;7.248;2023-04-21T03:56:12;5.80;99.90
43671;DHT22;29267;50.906;7.248;2023-04-21T03:58:38;5.80;99.90
43671;DHT22;29267;50.906;7.248;2023-04-21T04:01:04;5.80;99.90
43671;DHT22;29267;50.906;7.248;2023-04-21T04:03:30;5.80;99.90
43671;DHT22;29267;50.906;7.248;2023-04-21T04:05:56;5.80;99.90
43671;DHT22;29267;50.906;7.248;2023-04-21T04:08:22;5.80;99.90
43671;DHT22;29267;50.906;7.248;2023-04-21T04:10:47;5.80;99.90
43671;DHT22;29267;50.906;7.248;2023-04-21T04:13:13;5.80;99.90
43671;DHT22;29267;50.906;7.248;2023-04-21T04:15:38;5.80;99.90
43671;DHT22;29267;50.906;7.248;2023-04-21T04:18:04;5.70;99.90
43671;DHT22;29267;50.906;7.248;2023-04-21T04:20:30;5.70;99.90
43671;DHT22;29267;50.906;7.248;2023-04-21T04:22:55;5.80;99.90
43671;DHT22;29267;50.906;7.248;2023-04-21T04:25:21;5.80;99.90
43671;DHT22;29267;50.906;7.248;2023-04-21T04:27:46;5.80;99.90
43671;DHT22;29267;50.906;7.248;2023-04-21T04:30:15;5.80;99.90
43671;DHT22;29267;50.906;7.248;2023-04-21T04:32:41;5.80;99.90
43671;DHT22;29267;50.906;7.248;2023-04-21T04:35:07;5.80;99.90
43671;DHT22;29267;50.906;7.248;2023-04-21T04:37:36;5.80;99.90
43671;DHT22;29267;50.906;7.248;2023-04-21T04:40:02;5.70;99.90
43671;DHT22;29267;50.906;7.248;2023-04-21T04:42:31;5.80;99.90
43671;DHT22;29267;50.906;7.248;2023-04-21T04:44:58;5.80;99.90
43671;DHT22;29267;50.906;7.248;2023-04-21T04:47:26;5.70;99.90
43671;DHT22;29267;50.906;7.248;2023-04-21T04:49:51;5.80;99.90
43671;DHT22;29267;50.906;7.248;2023-04-21T04:52:17;5.80;99.90
43671;DHT22;29267;50.906;7.248;2023-04-21T04:54:42;5.80;99.90
43671;DHT22;29267;50.906;7.248;2023-04-21T04:57:08;5.90;99.90
43671;DHT22;29267;50.906;7.248;2023-04-21T04:59:34;5.90;99.90
43671;DHT22;29267;50.906;7.248;2023-04-21T05:02:01;6.00;99.90
43671;DHT22;29267;50.906;7.248;2023-04-21T05:04:27;6.10;99.90
43671;DHT22;29267;50.906;7.248;2023-04-21T05:06:52;6.20;99.90
43671;DHT22;29267;50.906;7.248;2023-04-21T05:09:18;6.30;99.90
43671;DHT22;29267;50.906;7.248;2023-04-21T05:11:43;6.30;99.90
43671;DHT22;29267;50.906;7.248;2023-04-21T05:14:09;6.40;99.90
43671;DHT22;29267;50.906;7.248;2023-04-21T05:16:35;6.50;99.90
43671;DHT22;29267;50.906;7.248;2023-04-21T05:19:01;6.60;99.90
43671;DHT22;29267;50.906;7.248;2023-04-21T05:21:27;6.60;99.90
43671;DHT22;29267;50.906;7.248;2023-04-21T05:23:57;6.70;99.90
43671;DHT22;29267;50.906;7.248;2023-04-21T05:26:24;6.70;99.90
43671;DHT22;29267;50.906;7.248;2023-04-21T05:28:50;6.70;99.90
43671;DHT22;29267;50.906;7.248;2023-04-21T05:31:15;6.80;99.90
43671;DHT22;29267;50.906;7.248;2023-04-21T05:33:41;6.90;99.90
43671;DHT22;29267;50.906;7.248;2023-04-21T05:36:08;7.00;99.90
43671;DHT22;29267;50.906;7.248;2023-04-21T05:38:34;7.00;99.90
43671;DHT22;29267;50.906;7.248;2023-04-21T05:41:00;7.00;99.90
43671;DHT22;29267;50.906;7.248;2023-04-21T05:43:26;7.10;99.90
43671;DHT22;29267;50.906;7.248;2023-04-21T05:45:51;7.10;99.90
43671;DHT22;29267;50.906;7.248;2023-04-21T05:48:17;7.10;99.90
43671;DHT22;29267;50.906;7.248;2023-04-21T05:50:43;7.10;99.90
43671;DHT22;29267;50.906;7.248;2023-04-21T05:53:08;7.20;99.90
43671;DHT22;29267;50.906;7.248;2023-04-21T05:55:34;7.30;99.90
43671;DHT22;29267;50.906;7.248;2023-04-21T05:58:00;7.30;99.90
43671;DHT22;29267;50.906;7.248;2023-04-21T06:00:25;7.30;99.90
43671;DHT22;29267;50.906;7.248;2023-04-21T06:02:51;7.40;99.90
43671;DHT22;29267;50.906;7.248;2023-04-21T06:05:17;7.50;99.90
43671;DHT22;29267;50.906;7.248;2023-04-21T06:07:43;7.50;99.90
43671;DHT22;29267;50.906;7.248;2023-04-21T06:10:10;7.50;99.90
43671;DHT22;29267;50.906;7.248;2023-04-21T06:12:35;7.50;99.90
43671;DHT22;29267;50.906;7.248;2023-04-21T06:15:01;7.60;99.90
43671;DHT22;29267;50.906;7.248;2023-04-21T06:17:27;7.70;99.90
43671;DHT22;29267;50.906;7.248;2023-04-21T06:19:53;7.80;99.90
43671;DHT22;29267;50.906;7.248;2023-04-21T06:22:23;8.10;99.90
43671;DHT22;29267;50.906;7.248;2023-04-21T06:24:48;8.30;99.90
43671;DHT22;29267;50.906;7.248;2023-04-21T06:27:15;8.30;99.90
43671;DHT22;29267;50.906;7.248;2023-04-21T06:29:41;8.40;99.90
43671;DHT22;29267;50.906;7.248;2023-04-21T06:32:10;8.40;99.90
43671;DHT22;29267;50.906;7.248;2023-04-21T06:34:37;8.30;99.90
43671;DHT22;29267;50.906;7.248;2023-04-21T06:37:02;8.20;99.90
43671;DHT22;29267;50.906;7.248;2023-04-21T06:39:28;8.20;99.90
43671;DHT22;29267;50.906;7.248;2023-04-21T06:41:54;8.30;99.90
43671;DHT22;29267;50.906;7.248;2023-04-21T06:44:20;8.40;99.90
43671;DHT22;29267;50.906;7.248;2023-04-21T06:46:45;8.60;99.90
43671;DHT22;29267;50.906;7.248;2023-04-21T06:49:11;8.80;99.90
43671;DHT22;29267;50.906;7.248;2023-04-21T06:51:37;9.10;99.90
43671;DHT22;29267;50.906;7.248;2023-04-21T06:54:03;9.30;99.90
43671;DHT22;29267;50.906;7.248;2023-04-21T06:56:30;9.10;99.90
43671;DHT22;29267;50.906;7.248;2023-04-21T06:58:55;9.00;99.90
43671;DHT22;29267;50.906;7.248;2023-04-21T07:01:22;9.00;99.90
43671;DHT22;29267;50.906;7.248;2023-04-21T07:03:51;9.00;99.90
43671;DHT22;29267;50.906;7.248;2023-04-21T07:06:17;9.00;99.90
43671;DHT22;29267;50.906;7.248;2023-04-21T07:08:43;9.30;99.90
43671;DHT22;29267;50.906;7.248;2023-04-21T07:11:08;9.30;99.90
43671;DHT22;29267;50.906;7.248;2023-04-21T07:13:34;9.40;99.90
43671;DHT22;29267;50.906;7.248;2023-04-21T07:16:00;9.40;99.90
43671;DHT22;29267;50.906;7.248;2023-04-21T07:18:25;9.40;99.90
43671;DHT22;29267;50.906;7.248;2023-04-21T07:20:51;9.50;99.90
43671;DHT22;29267;50.906;7.248;2023-04-21T07:23:17;9.60;99.90
43671;DHT22;29267;50.906;7.248;2023-04-21T07:25:42;9.70;99.90
43671;DHT22;29267;50.906;7.248;2023-04-21T07:28:08;9.80;99.90
43671;DHT22;29267;50.906;7.248;2023-04-21T07:30:36;9.80;99.90
43671;DHT22;29267;50.906;7.248;2023-04-21T07:33:01;10.10;99.90
43671;DHT22;29267;50.906;7.248;2023-04-21T07:35:27;10.40;99.90
43671;DHT22;29267;50.906;7.248;2023-04-21T07:37:53;10.80;99.90
43671;DHT22;29267;50.906;7.248;2023-04-21T07:40:19;11.20;99.90
43671;DHT22;29267;50.906;7.248;2023-04-21T07:42:45;11.20;99.90
43671;DHT22;29267;50.906;7.248;2023-04-21T07:45:10;11.10;99.90
43671;DHT22;29267;50.906;7.248;2023-04-21T07:47:37;11.00;99.90
43671;DHT22;29267;50.906;7.248;2023-04-21T07:50:03;11.30;99.90
43671;DHT22;29267;50.906;7.248;2023-04-21T07:52:28;11.60;99.90
43671;DHT22;29267;50.906;7.248;2023-04-21T07:54:54;12.00;99.90
43671;DHT22;29267;50.906;7.248;2023-04-21T07:57:20;12.20;99.90
43671;DHT22;29267;50.906;7.248;2023-04-21T07:59:45;12.60;99.90
43671;DHT22;29267;50.906;7.248;2023-04-21T08:02:11;12.60;99.90
43671;DHT22;29267;50.906;7.248;2023-04-21T08:04:37;12.70;99.90
43671;DHT22;29267;50.906;7.248;2023-04-21T08:07:02;12.70;99.90
43671;DHT22;29267;50.906;7.248;2023-04-21T08:09:28;13.20;99.90
43671;DHT22;29267;50.906;7.248;2023-04-21T08:11:53;13.50;99.90
43671;DHT22;29267;50.906;7.248;2023-04-21T08:14:20;13.40;99.90
43671;DHT22;29267;50.906;7.248;2023-04-21T08:16:45;13.00;99.90
43671;DHT22;29267;50.906;7.248;2023-04-21T08:19:11;13.20;99.90
43671;DHT22;29267;50.906;7.248;2023-04-21T08:21:36;12.70;99.90
43671;DHT22;29267;50.906;7.248;2023-04-21T08:24:02;12.70;99.90
43671;DHT22;29267;50.906;7.248;2023-04-21T08:26:28;12.30;99.90
43671;DHT22;29267;50.906;7.248;2023-04-21T08:28:55;12.20;99.90
43671;DHT22;29267;50.906;7.248;2023-04-21T08:31:21;12.20;99.90
43671;DHT22;29267;50.906;7.248;2023-04-21T08:33:47;12.00;99.90
43671;DHT22;29267;50.906;7.248;2023-04-21T08:36:13;12.20;99.90
43671;DHT22;29267;50.906;7.248;2023-04-21T08:38:41;12.30;99.90
43671;DHT22;29267;50.906;7.248;2023-04-21T08:41:07;12.40;99.90
43671;DHT22;29267;50.906;7.248;2023-04-21T08:43:33;12.40;99.90
43671;DHT22;29267;50.906;7.248;2023-04-21T08:45:59;12.30;99.90
43671;DHT22;29267;50.906;7.248;2023-04-21T08:48:27;12.30;99.90
43671;DHT22;29267;50.906;7.248;2023-04-21T08:50:54;12.40;99.90
43671;DHT22;29267;50.906;7.248;2023-04-21T08:53:19;13.30;99.90
43671;DHT22;29267;50.906;7.248;2023-04-21T08:55:47;14.70;99.90
43671;DHT22;29267;50.906;7.248;2023-04-21T08:58:16;15.30;99.90
43671;DHT22;29267;50.906;7.248;2023-04-21T09:00:41;15.50;99.90
43671;DHT22;29267;50.906;7.248;2023-04-21T09:03:07;15.30;99.90
43671;DHT22;29267;50.906;7.248;2023-04-21T09:05:33;14.90;99.90
43671;DHT22;29267;50.906;7.248;2023-04-21T09:08:14;14.50;99.90
43671;DHT22;29267;50.906;7.248;2023-04-21T09:10:48;14.40;99.90
43671;DHT22;29267;50.906;7.248;2023-04-21T09:13:14;14.70;99.90
43671;DHT22;29267;50.906;7.248;2023-04-21T09:15:42;15.40;99.90
43671;DHT22;29267;50.906;7.248;2023-04-21T09:18:35;16.60;99.90
43671;DHT22;29267;50.906;7.248;2023-04-21T09:21:13;18.10;99.90
43671;DHT22;29267;50.906;7.248;2023-04-21T09:23:49;18.60;99.90
43671;DHT22;29267;50.906;7.248;2023-04-21T09:26:16;19.20;99.90
43671;DHT22;29267;50.906;7.248;2023-04-21T09:28:44;18.90;98.60
43671;DHT22;29267;50.906;7.248;2023-04-21T09:33:47;18.20;99.90
43671;DHT22;29267;50.906;7.248;2023-04-21T09:36:20;18.10;99.90
43671;DHT22;29267;50.906;7.248;2023-04-21T09:38:55;17.90;99.90
43671;DHT22;29267;50.906;7.248;2023-04-21T09:41:22;17.80;99.90
43671;DHT22;29267;50.906;7.248;2023-04-21T09:43:48;18.00;99.90
43671;DHT22;29267;50.906;7.248;2023-04-21T09:46:15;17.80;99.90
43671;DHT22;29267;50.906;7.248;2023-04-21T09:48:43;17.80;99.90
43671;DHT22;29267;50.906;7.248;2023-04-21T09:51:13;17.70;99.90
43671;DHT22;29267;50.906;7.248;2023-04-21T09:53:40;17.70;99.90
43671;DHT22;29267;50.906;7.248;2023-04-21T09:56:14;18.10;99.90
43671;DHT22;29267;50.906;7.248;2023-04-21T09:58:50;19.10;99.90
43671;DHT22;29267;50.906;7.248;2023-04-21T10:01:17;19.70;97.30
43671;DHT22;29267;50.906;7.248;2023-04-21T10:03:44;20.20;98.50
43671;DHT22;29267;50.906;7.248;2023-04-21T10:06:11;20.60;98.10
43671;DHT22;29267;50.906;7.248;2023-04-21T10:08:38;20.40;95.80
43671;DHT22;29267;50.906;7.248;2023-04-21T10:11:04;20.30;95.60
43671;DHT22;29267;50.906;7.248;2023-04-21T10:13:31;20.30;95.50
43671;DHT22;29267;50.906;7.248;2023-04-21T10:16:05;20.40;96.30
43671;DHT22;29267;50.906;7.248;2023-04-21T10:18:38;20.30;94.30
43671;DHT22;29267;50.906;7.248;2023-04-21T10:21:08;20.10;95.50
43671;DHT22;29267;50.906;7.248;2023-04-21T10:23:42;18.90;94.80
43671;DHT22;29267;50.906;7.248;2023-04-21T10:26:24;18.40;96.50
43671;DHT22;29267;50.906;7.248;2023-04-21T10:34:14;18.50;98.30
43671;DHT22;29267;50.906;7.248;2023-04-21T10:39:09;19.00;96.70
43671;DHT22;29267;50.906;7.248;2023-04-21T10:41:41;18.90;97.90
43671;DHT22;29267;50.906;7.248;2023-04-21T10:44:11;18.90;96.60
43671;DHT22;29267;50.906;7.248;2023-04-21T10:46:48;18.90;96.50
43671;DHT22;29267;50.906;7.248;2023-04-21T10:49:22;18.90;96.40
43671;DHT22;29267;50.906;7.248;2023-04-21T10:57:05;18.90;95.70
43671;DHT22;29267;50.906;7.248;2023-04-21T10:59:33;18.70;94.60
43671;DHT22;29267;50.906;7.248;2023-04-21T11:02:10;18.60;94.50
43671;DHT22;29267;50.906;7.248;2023-04-21T11:04:36;18.80;96.20
43671;DHT22;29267;50.906;7.248;2023-04-21T11:07:12;18.90;95.50
43671;DHT22;29267;50.906;7.248;2023-04-21T11:09:38;18.50;95.60
43671;DHT22;29267;50.906;7.248;2023-04-21T11:12:07;18.50;97.10
43671;DHT22;29267;50.906;7.248;2023-04-21T11:14:36;18.90;96.10
43671;DHT22;29267;50.906;7.248;2023-04-21T11:17:03;19.00;95.80
43671;DHT22;29267;50.906;7.248;2023-04-21T11:19:32;19.00;96.20
43671;DHT22;29267;50.906;7.248;2023-04-21T11:21:58;19.10;95.70
43671;DHT22;29267;50.906;7.248;2023-04-21T11:24:24;18.80;95.30
43671;DHT22;29267;50.906;7.248;2023-04-21T11:26:50;18.50;94.90
43671;DHT22;29267;50.906;7.248;2023-04-21T11:29:16;18.40;95.30
43671;DHT22;29267;50.906;7.248;2023-04-21T11:31:43;18.20;95.70
43671;DHT22;29267;50.906;7.248;2023-04-21T11:34:10;18.70;96.90
43671;DHT22;29267;50.906;7.248;2023-04-21T11:36:40;18.70;96.10
43671;DHT22;29267;50.906;7.248;2023-04-21T11:39:14;19.00;94.70
43671;DHT22;29267;50.906;7.248;2023-04-21T11:41:42;19.20;94.10
43671;DHT22;29267;50.906;7.248;2023-04-21T11:44:08;19.10;95.70
43671;DHT22;29267;50.906;7.248;2023-04-21T11:46:34;19.20;95.20
43671;DHT22;29267;50.906;7.248;2023-04-21T11:49:10;19.00;94.40
43671;DHT22;29267;50.906;7.248;2023-04-21T11:51:43;18.50;95.30
43671;DHT22;29267;50.906;7.248;2023-04-21T11:54:12;18.40;95.30
43671;DHT22;29267;50.906;7.248;2023-04-21T11:56:40;18.10;96.20
43671;DHT22;29267;50.906;7.248;2023-04-21T11:59:11;18.10;96.70
43671;DHT22;29267;50.906;7.248;2023-04-21T12:01:55;18.60;97.80
43671;DHT22;29267;50.906;7.248;2023-04-21T12:04:24;18.80;95.90
43671;DHT22;29267;50.906;7.248;2023-04-21T12:07:01;18.90;96.60
43671;DHT22;29267;50.906;7.248;2023-04-21T12:09:28;18.80;95.50
43671;DHT22;29267;50.906;7.248;2023-04-21T12:11:56;19.00;95.20
43671;DHT22;29267;50.906;7.248;2023-04-21T12:14:23;18.80;96.20
43671;DHT22;29267;50.906;7.248;2023-04-21T12:16:52;18.50;95.90
43671;DHT22;29267;50.906;7.248;2023-04-21T12:19:34;18.10;95.80
43671;DHT22;29267;50.906;7.248;2023-04-21T12:22:00;18.20;97.20
43671;DHT22;29267;50.906;7.248;2023-04-21T12:24:26;18.30;97.70
43671;DHT22;29267;50.906;7.248;2023-04-21T12:26:52;18.50;96.40
43671;DHT22;29267;50.906;7.248;2023-04-21T12:29:18;18.40;96.20
43671;DHT22;29267;50.906;7.248;2023-04-21T12:31:44;18.10;97.20
43671;DHT22;29267;50.906;7.248;2023-04-21T12:34:09;18.00;96.90
43671;DHT22;29267;50.906;7.248;2023-04-21T12:36:35;17.90;96.60
43671;DHT22;29267;50.906;7.248;2023-04-21T12:39:01;17.70;96.50
43671;DHT22;29267;50.906;7.248;2023-04-21T12:41:26;17.50;96.90
43671;DHT22;29267;50.906;7.248;2023-04-21T12:43:52;17.50;96.60
43671;DHT22;29267;50.906;7.248;2023-04-21T12:46:18;17.60;96.80
43671;DHT22;29267;50.906;7.248;2023-04-21T12:48:43;17.60;97.30
43671;DHT22;29267;50.906;7.248;2023-04-21T12:51:09;18.20;96.70
43671;DHT22;29267;50.906;7.248;2023-04-21T12:53:35;18.50;95.80
43671;DHT22;29267;50.906;7.248;2023-04-21T12:56:01;18.50;95.50
43671;DHT22;29267;50.906;7.248;2023-04-21T12:58:27;18.50;95.70
43671;DHT22;29267;50.906;7.248;2023-04-21T13:00:53;18.40;95.90
43671;DHT22;29267;50.906;7.248;2023-04-21T13:03:19;18.30;95.10
43671;DHT22;29267;50.906;7.248;2023-04-21T13:05:45;18.30;96.10
43671;DHT22;29267;50.906;7.248;2023-04-21T13:08:11;18.40;95.40
43671;DHT22;29267;50.906;7.248;2023-04-21T13:10:36;17.90;95.70
43671;DHT22;29267;50.906;7.248;2023-04-21T13:13:02;17.60;96.50
43671;DHT22;29267;50.906;7.248;2023-04-21T13:15:28;17.50;97.90
43671;DHT22;29267;50.906;7.248;2023-04-21T13:17:53;17.40;96.60
43671;DHT22;29267;50.906;7.248;2023-04-21T13:20:19;17.00;97.40
43671;DHT22;29267;50.906;7.248;2023-04-21T13:22:45;16.80;98.00
43671;DHT22;29267;50.906;7.248;2023-04-21T13:25:10;16.60;98.80
43671;DHT22;29267;50.906;7.248;2023-04-21T13:27:36;16.40;98.90
43671;DHT22;29267;50.906;7.248;2023-04-21T13:30:07;16.50;99.70
43671;DHT22;29267;50.906;7.248;2023-04-21T13:32:33;16.60;99.70
43671;DHT22;29267;50.906;7.248;2023-04-21T13:34:58;16.70;99.90
43671;DHT22;29267;50.906;7.248;2023-04-21T13:37:24;16.70;99.00
43671;DHT22;29267;50.906;7.248;2023-04-21T13:39:50;16.80;99.20
43671;DHT22;29267;50.906;7.248;2023-04-21T13:42:16;16.80;98.40
43671;DHT22;29267;50.906;7.248;2023-04-21T13:44:41;16.70;98.30
43671;DHT22;29267;50.906;7.248;2023-04-21T13:47:07;16.70;97.30
43671;DHT22;29267;50.906;7.248;2023-04-21T13:49:33;16.70;98.60
43671;DHT22;29267;50.906;7.248;2023-04-21T13:51:59;16.70;97.80
43671;DHT22;29267;50.906;7.248;2023-04-21T13:54:25;16.70;97.90
43671;DHT22;29267;50.906;7.248;2023-04-21T13:56:50;16.60;97.90
43671;DHT22;29267;50.906;7.248;2023-04-21T13:59:17;16.60;97.90
43671;DHT22;29267;50.906;7.248;2023-04-21T14:01:45;16.70;98.00
43671;DHT22;29267;50.906;7.248;2023-04-21T14:04:10;16.60;97.50
43671;DHT22;29267;50.906;7.248;2023-04-21T14:06:36;16.60;97.90
43671;DHT22;29267;50.906;7.248;2023-04-21T14:09:02;16.50;98.40
43671;DHT22;29267;50.906;7.248;2023-04-21T14:11:29;16.50;99.10
43671;DHT22;29267;50.906;7.248;2023-04-21T14:13:54;16.60;98.30
43671;DHT22;29267;50.906;7.248;2023-04-21T14:16:20;16.70;98.20
43671;DHT22;29267;50.906;7.248;2023-04-21T14:18:45;16.80;98.70
43671;DHT22;29267;50.906;7.248;2023-04-21T14:21:11;16.90;98.40
43671;DHT22;29267;50.906;7.248;2023-04-21T14:23:37;16.90;97.00
43671;DHT22;29267;50.906;7.248;2023-04-21T14:26:03;16.90;97.50
43671;DHT22;29267;50.906;7.248;2023-04-21T14:28:29;16.90;96.90
43671;DHT22;29267;50.906;7.248;2023-04-21T14:33:29;17.30;96.00
43671;DHT22;29267;50.906;7.248;2023-04-21T14:35:55;17.40;96.70
43671;DHT22;29267;50.906;7.248;2023-04-21T14:38:21;17.60;97.10
43671;DHT22;29267;50.906;7.248;2023-04-21T14:40:46;17.90;96.30
43671;DHT22;29267;50.906;7.248;2023-04-21T14:43:14;18.10;94.70
43671;DHT22;29267;50.906;7.248;2023-04-21T14:45:39;18.20;94.60
43671;DHT22;29267;50.906;7.248;2023-04-21T14:48:05;18.20;94.40
43671;DHT22;29267;50.906;7.248;2023-04-21T14:50:31;18.30;95.20
43671;DHT22;29267;50.906;7.248;2023-04-21T14:52:57;18.20;94.70
43671;DHT22;29267;50.906;7.248;2023-04-21T14:55:22;18.20;94.40
43671;DHT22;29267;50.906;7.248;2023-04-21T14:57:48;18.20;94.10
43671;DHT22;29267;50.906;7.248;2023-04-21T15:00:16;18.10;93.80
43671;DHT22;29267;50.906;7.248;2023-04-21T15:02:42;18.10;94.00
43671;DHT22;29267;50.906;7.248;2023-04-21T15:05:08;18.10;93.60
43671;DHT22;29267;50.906;7.248;2023-04-21T15:07:33;18.10;94.30
43671;DHT22;29267;50.906;7.248;2023-04-21T15:09:59;18.20;94.80
43671;DHT22;29267;50.906;7.248;2023-04-21T15:12:24;18.20;94.80
43671;DHT22;29267;50.906;7.248;2023-04-21T15:14:50;18.10;93.60
43671;DHT22;29267;50.906;7.248;2023-04-21T15:17:16;18.20;95.10
43671;DHT22;29267;50.906;7.248;2023-04-21T15:19:41;18.20;93.70
43671;DHT22;29267;50.906;7.248;2023-04-21T15:22:07;18.30;94.30
43671;DHT22;29267;50.906;7.248;2023-04-21T15:24:32;18.20;93.90
43671;DHT22;29267;50.906;7.248;2023-04-21T15:26:58;18.10;93.00
43671;DHT22;29267;50.906;7.248;2023-04-21T15:29:24;18.10;93.60
43671;DHT22;29267;50.906;7.248;2023-04-21T15:31:49;17.90;93.80
43671;DHT22;29267;50.906;7.248;2023-04-21T15:34:15;17.80;94.10
43671;DHT22;29267;50.906;7.248;2023-04-21T15:36:40;17.60;93.70
43671;DHT22;29267;50.906;7.248;2023-04-21T15:39:06;17.50;93.70
43671;DHT22;29267;50.906;7.248;2023-04-21T15:41:32;17.40;94.60
43671;DHT22;29267;50.906;7.248;2023-04-21T15:43:59;17.40;95.40
43671;DHT22;29267;50.906;7.248;2023-04-21T15:46:25;17.40;94.90
43671;DHT22;29267;50.906;7.248;2023-04-21T15:48:50;17.40;95.60
43671;DHT22;29267;50.906;7.248;2023-04-21T15:51:17;17.40;95.30
43671;DHT22;29267;50.906;7.248;2023-04-21T15:53:43;17.40;95.20